Time;durP1;ratioP1;P1;durP2;ratioP2;P2;SDS_P1;SDS_P2;PMS_P1;PMS_P2;Temp;Humidity;BMP_temperature;BMP_pressure;BME280_temperature;BME280_humidity;BME280_pressure;Samples;Min_cycle;Max_cycle;Signal;HPM_P1;HPM_P2
2022/08/20 00:01:00;;;;;;;2.22;0.65;;;14.80;99.70;;;;;;4954598;29;20392;-76
2022/08/20 00:03:39;;;;;;;2.22;0.60;;;15.10;99.90;;;;;;4954502;29;20476;-76
2022/08/20 00:06:11;;;;;;;2.50;0.70;;;15.30;99.10;;;;;;4954487;29;20114;-76
2022/08/20 00:08:39;;;;;;;2.63;0.70;;;15.20;98.80;;;;;;4955986;28;20024;-76
2022/08/20 00:11:09;;;;;;;2.05;0.60;;;15.30;98.40;;;;;;4955641;28;20034;-76
2022/08/20 00:13:40;;;;;;;2.30;0.70;;;15.30;98.90;;;;;;4955690;28;20030;-76
2022/08/20 00:16:09;;;;;;;2.80;0.73;;;15.50;98.40;;;;;;4955969;28;20412;-76
2022/08/20 00:18:37;;;;;;;3.92;0.98;;;15.70;98.80;;;;;;4954185;29;20038;-75
2022/08/20 00:21:09;;;;;;;4.57;0.93;;;16.00;98.50;;;;;;4954190;29;20512;-76
2022/08/20 00:23:38;;;;;;;4.13;0.98;;;15.80;98.50;;;;;;4955562;28;20024;-76
2022/08/20 00:26:07;;;;;;;3.53;0.75;;;15.90;97.80;;;;;;4954405;29;20034;-76
2022/08/20 00:28:34;;;;;;;3.22;0.70;;;15.90;97.90;;;;;;4955493;28;20027;-76
2022/08/20 00:31:04;;;;;;;4.10;0.73;;;15.90;98.20;;;;;;4955536;28;20385;-76
2022/08/20 00:33:31;;;;;;;4.72;0.63;;;15.70;98.30;;;;;;4955311;28;20038;-76
2022/08/20 00:36:05;;;;;;;2.83;0.60;;;15.70;98.10;;;;;;4954028;29;20062;-76
2022/08/20 00:38:34;;;;;;;3.88;0.95;;;15.80;98.10;;;;;;4953955;29;20400;-77
2022/08/20 00:41:02;;;;;;;4.45;0.80;;;16.10;98.00;;;;;;4955077;28;20055;-76
2022/08/20 00:43:40;;;;;;;4.00;1.08;;;16.40;98.10;;;;;;4955264;28;20392;-76
2022/08/20 00:46:14;;;;;;;5.32;1.08;;;16.60;98.00;;;;;;4954294;29;20118;-78
2022/08/20 00:48:46;;;;;;;3.65;0.90;;;16.80;98.00;;;;;;4953948;29;20094;-77
2022/08/20 00:51:32;;;;;;;3.42;0.93;;;16.80;97.40;;;;;;4955351;28;20106;-78
2022/08/20 00:54:27;;;;;;;2.88;0.75;;;16.80;97.10;;;;;;4955829;28;20043;-76
2022/08/20 00:57:05;;;;;;;3.72;0.77;;;16.80;97.30;;;;;;4955489;28;20026;-77
2022/08/20 00:59:36;;;;;;;4.45;1.10;;;16.80;97.40;;;;;;4953913;29;20063;-77
2022/08/20 01:02:06;;;;;;;3.88;0.70;;;16.80;98.00;;;;;;4954520;28;20031;-77
2022/08/20 01:04:36;;;;;;;3.35;1.10;;;17.10;97.40;;;;;;4958017;29;20031;-77
2022/08/20 01:07:05;;;;;;;3.83;0.90;;;17.00;96.80;;;;;;4957780;29;20041;-76
2022/08/20 01:09:35;;;;;;;2.70;0.75;;;16.90;97.10;;;;;;4957961;29;20027;-76
2022/08/20 01:12:02;;;;;;;3.63;0.88;;;17.00;97.10;;;;;;4957361;29;20031;-76
2022/08/20 01:17:06;;;;;;;4.63;0.68;;;17.30;96.70;;;;;;4958525;28;20033;-77
2022/08/20 01:19:44;;;;;;;2.55;0.60;;;17.40;96.40;;;;;;4958751;28;20492;-76
2022/08/20 01:25:17;;;;;;;3.83;0.95;;;17.00;96.40;;;;;;4959339;29;20090;-77
2022/08/20 01:27:46;;;;;;;3.58;0.77;;;17.50;96.80;;;;;;4957346;29;20086;-76
2022/08/20 01:30:13;;;;;;;2.35;0.65;;;17.30;96.40;;;;;;4957156;29;20070;-75
2022/08/20 01:32:40;;;;;;;3.33;0.82;;;17.30;96.00;;;;;;4958101;28;20399;-75
2022/08/20 01:35:09;;;;;;;3.65;1.05;;;17.30;96.10;;;;;;4956976;29;20039;-76
2022/08/20 01:37:36;;;;;;;3.65;1.10;;;17.20;96.10;;;;;;4958503;28;20082;-75
2022/08/20 01:40:07;;;;;;;3.28;1.10;;;17.00;96.00;;;;;;4956853;28;20090;-75
2022/08/20 01:42:43;;;;;;;4.35;0.90;;;16.90;96.40;;;;;;4957055;29;20038;-76
2022/08/20 01:45:11;;;;;;;4.18;0.90;;;17.00;96.20;;;;;;4957168;29;20507;-77
2022/08/20 01:47:38;;;;;;;2.78;0.68;;;16.90;96.50;;;;;;4957162;29;20066;-76
2022/08/20 01:50:21;;;;;;;3.85;0.80;;;17.20;96.20;;;;;;4956837;29;20032;-76
2022/08/20 01:53:05;;;;;;;2.47;0.90;;;17.30;96.30;;;;;;4956786;29;20035;-76
2022/08/20 01:55:33;;;;;;;2.53;0.90;;;17.40;96.20;;;;;;4956876;29;20383;-76
2022/08/20 01:58:02;;;;;;;2.55;0.75;;;17.60;96.00;;;;;;4958249;28;20047;-76
2022/08/20 02:00:31;;;;;;;2.15;0.70;;;17.50;95.80;;;;;;4958238;29;20020;-76
2022/08/20 02:02:58;;;;;;;2.67;0.75;;;17.30;96.60;;;;;;4957920;28;20055;-77
2022/08/20 02:05:26;;;;;;;5.35;1.00;;;17.20;96.90;;;;;;4957910;28;20024;-76
2022/08/20 02:07:54;;;;;;;3.50;0.80;;;17.10;96.20;;;;;;4958138;28;20107;-75
2022/08/20 02:10:22;;;;;;;2.53;0.52;;;17.00;96.00;;;;;;4956489;29;20054;-77
2022/08/20 02:12:51;;;;;;;2.00;0.60;;;16.90;96.50;;;;;;4940412;29;20559;-75
2022/08/20 02:15:18;;;;;;;2.10;0.70;;;16.90;96.00;;;;;;4957812;29;20027;-76
2022/08/20 02:17:47;;;;;;;3.03;0.80;;;16.80;96.00;;;;;;4958102;28;20111;-77
2022/08/20 02:20:19;;;;;;;3.03;0.70;;;16.60;95.90;;;;;;4956598;29;20086;-76
2022/08/20 02:22:53;;;;;;;1.98;0.60;;;16.80;97.00;;;;;;4956524;29;20081;-77
2022/08/20 02:25:25;;;;;;;2.40;0.60;;;16.80;96.50;;;;;;4956264;29;20077;-76
2022/08/20 02:27:53;;;;;;;2.35;0.73;;;16.80;96.50;;;;;;4956867;29;20045;-76
2022/08/20 02:30:32;;;;;;;5.70;0.82;;;16.80;96.60;;;;;;4957947;28;20027;-78
2022/08/20 02:33:02;;;;;;;1.88;0.75;;;17.00;96.40;;;;;;4957705;28;20031;-77
2022/08/20 02:35:31;;;;;;;4.18;0.90;;;16.90;96.50;;;;;;4940650;29;20039;-77
2022/08/20 02:37:58;;;;;;;2.80;0.90;;;17.00;96.10;;;;;;4957788;28;20027;-76
2022/08/20 02:40:28;;;;;;;3.70;1.23;;;17.00;97.00;;;;;;4957248;28;20043;-77
2022/08/20 02:42:56;;;;;;;4.63;1.10;;;17.10;96.30;;;;;;4957293;28;20034;-77
2022/08/20 02:45:26;;;;;;;3.22;0.80;;;16.90;96.20;;;;;;4957469;28;20373;-77
2022/08/20 02:47:55;;;;;;;3.75;0.82;;;16.80;96.60;;;;;;4956395;29;20443;-76
2022/08/20 02:50:25;;;;;;;4.10;0.93;;;16.80;96.90;;;;;;4956154;29;20062;-78
2022/08/20 02:52:54;;;;;;;5.80;1.48;;;16.80;97.00;;;;;;4958011;28;20074;-77
2022/08/20 02:55:23;;;;;;;5.43;1.33;;;16.70;98.10;;;;;;4956425;29;20086;-79
2022/08/20 02:57:58;;;;;;;6.10;0.93;;;16.70;97.40;;;;;;4957231;28;20027;-79
2022/08/20 03:00:26;;;;;;;3.20;1.00;;;16.80;98.80;;;;;;4956075;29;20034;-79
2022/08/20 03:02:54;;;;;;;3.88;0.90;;;16.80;98.50;;;;;;4957111;29;20035;-77
2022/08/20 03:05:21;;;;;;;4.10;1.25;;;16.60;98.20;;;;;;4956605;29;20035;-79
2022/08/20 03:07:58;;;;;;;3.58;1.05;;;16.70;99.10;;;;;;4956626;29;20027;-79
2022/08/20 03:10:32;;;;;;;2.35;0.90;;;16.70;97.90;;;;;;4957197;28;20054;-78
2022/08/20 03:13:01;;;;;;;3.17;0.80;;;16.70;98.10;;;;;;4957699;28;20039;-80
2022/08/20 03:15:32;;;;;;;4.30;1.23;;;16.70;98.00;;;;;;4956591;29;20388;-77
2022/08/20 03:17:59;;;;;;;2.10;0.70;;;16.90;98.60;;;;;;4956231;29;20028;-77
2022/08/20 03:20:28;;;;;;;4.68;1.35;;;17.00;98.50;;;;;;4956915;28;20026;-79
2022/08/20 03:22:56;;;;;;;3.38;1.02;;;17.10;97.80;;;;;;4955664;29;20189;-79
2022/08/20 03:25:26;;;;;;;2.72;0.70;;;17.20;97.00;;;;;;4956523;28;20476;-77
2022/08/20 03:27:53;;;;;;;3.38;0.82;;;17.10;97.30;;;;;;4955986;29;20039;-77
2022/08/20 03:30:22;;;;;;;3.70;1.10;;;17.10;98.10;;;;;;4955732;29;20067;-79
2022/08/20 03:32:50;;;;;;;4.10;1.00;;;17.20;98.20;;;;;;4939906;29;20059;-78
2022/08/20 03:35:20;;;;;;;2.88;0.80;;;17.20;97.70;;;;;;4956624;29;20062;-77
2022/08/20 03:37:48;;;;;;;3.17;0.70;;;17.00;97.00;;;;;;4958675;29;20031;-77
2022/08/20 03:40:24;;;;;;;3.47;0.90;;;16.90;97.20;;;;;;4958874;28;20066;-78
2022/08/20 03:42:51;;;;;;;3.53;0.80;;;16.70;97.10;;;;;;4958586;29;20027;-77
2022/08/20 03:45:21;;;;;;;3.08;0.70;;;16.70;97.60;;;;;;4961007;29;20090;-78
2022/08/20 03:47:50;;;;;;;2.25;1.05;;;16.80;97.60;;;;;;4962527;28;20047;-77
2022/08/20 03:50:19;;;;;;;3.55;0.82;;;16.80;97.40;;;;;;4962606;28;20100;-77
2022/08/20 03:52:47;;;;;;;2.97;1.15;;;16.80;97.50;;;;;;4961307;29;20034;-76
2022/08/20 03:55:16;;;;;;;3.70;0.88;;;16.80;98.10;;;;;;4959447;29;20027;-79
2022/08/20 03:57:53;;;;;;;2.65;0.80;;;16.80;98.00;;;;;;4942679;29;20031;-78
2022/08/20 04:00:27;;;;;;;3.78;1.05;;;16.90;98.20;;;;;;4959112;28;20027;-77
2022/08/20 04:02:59;;;;;;;2.90;0.70;;;16.90;98.20;;;;;;4957205;29;20027;-77
2022/08/20 04:05:29;;;;;;;2.47;0.73;;;16.90;99.00;;;;;;4956492;29;20031;-77
2022/08/20 04:07:59;;;;;;;1.55;0.40;;;16.90;98.70;;;;;;4958526;28;20038;-79
2022/08/20 04:10:26;;;;;;;3.92;0.98;;;16.90;98.20;;;;;;4958524;28;20419;-78
2022/08/20 04:12:53;;;;;;;3.50;0.80;;;17.00;98.80;;;;;;4957598;29;20034;-80
2022/08/20 04:15:23;;;;;;;2.05;0.60;;;17.00;99.40;;;;;;4957270;28;20019;-80
2022/08/20 04:17:52;;;;;;;3.28;1.00;;;17.00;98.70;;;;;;4956371;28;20019;-78
2022/08/20 04:20:22;;;;;;;1.98;0.68;;;17.10;98.50;;;;;;4955178;29;20028;-79
2022/08/20 04:22:55;;;;;;;4.63;0.93;;;17.10;99.30;;;;;;4954828;29;20551;-77
2022/08/20 04:25:23;;;;;;;2.45;0.70;;;17.20;99.50;;;;;;4954482;29;20032;-76
2022/08/20 04:27:51;;;;;;;3.15;0.70;;;17.20;99.10;;;;;;4955204;28;20078;-76
2022/08/20 04:30:22;;;;;;;4.97;1.00;;;17.20;99.60;;;;;;4954209;29;20035;-74
2022/08/20 04:32:50;;;;;;;3.22;0.70;;;17.20;98.80;;;;;;4955408;28;20047;-74
2022/08/20 04:35:18;;;;;;;4.05;0.80;;;17.40;99.40;;;;;;4954376;29;20031;-77
2022/08/20 04:37:56;;;;;;;3.13;0.70;;;17.60;99.60;;;;;;4956217;28;20030;-77
2022/08/20 04:43:09;;;;;;;3.63;0.98;;;17.50;99.70;;;;;;4958361;29;20053;-77
2022/08/20 04:45:37;;;;;;;2.25;0.60;;;17.40;99.30;;;;;;4959216;28;20373;-77
2022/08/20 04:48:06;;;;;;;3.22;1.30;;;17.60;99.90;;;;;;4958293;28;20079;-75
2022/08/20 04:50:35;;;;;;;3.50;1.00;;;17.70;99.40;;;;;;4953877;29;20070;-76
2022/08/20 04:53:05;;;;;;;3.50;1.20;;;17.60;99.40;;;;;;4955126;28;20035;-76
2022/08/20 04:55:37;;;;;;;7.28;1.38;;;17.70;99.50;;;;;;4955784;28;20358;-75
2022/08/20 04:58:08;;;;;;;3.78;1.10;;;18.00;99.60;;;;;;4954001;29;20078;-74
2022/08/20 05:00:36;;;;;;;2.63;1.00;;;18.10;98.00;;;;;;4954413;29;20038;-75
2022/08/20 05:03:08;;;;;;;3.15;0.93;;;18.20;98.80;;;;;;4953581;29;20027;-76
2022/08/20 05:05:36;;;;;;;3.40;1.00;;;18.20;97.90;;;;;;4954100;29;20031;-76
2022/08/20 05:08:04;;;;;;;2.90;0.75;;;18.10;97.90;;;;;;4955195;28;20031;-76
2022/08/20 05:10:31;;;;;;;3.80;1.15;;;18.30;98.10;;;;;;4953902;29;20106;-76
2022/08/20 05:12:59;;;;;;;2.67;0.85;;;18.60;97.60;;;;;;4955054;28;20034;-76
2022/08/20 05:15:26;;;;;;;2.53;0.80;;;18.70;97.40;;;;;;4954270;29;20090;-75
2022/08/20 05:18:00;;;;;;;3.13;1.02;;;18.70;96.80;;;;;;4954321;29;20031;-76
2022/08/20 05:20:30;;;;;;;3.20;1.08;;;18.50;97.90;;;;;;4937879;29;20027;-74
2022/08/20 05:22:58;;;;;;;4.78;0.90;;;18.30;97.60;;;;;;4955543;28;20431;-76
2022/08/20 05:25:29;;;;;;;3.78;0.70;;;18.10;97.80;;;;;;4955453;28;20024;-77
2022/08/20 05:28:08;;;;;;;3.45;1.02;;;18.00;97.50;;;;;;4955392;28;20110;-76
2022/08/20 05:30:37;;;;;;;4.63;1.58;;;17.90;98.20;;;;;;4954917;28;20023;-77
2022/08/20 05:33:07;;;;;;;3.85;0.95;;;17.90;98.30;;;;;;4953475;29;20563;-76
2022/08/20 05:35:39;;;;;;;1.92;0.57;;;17.80;97.80;;;;;;4955099;28;20395;-76
2022/08/20 05:38:10;;;;;;;3.03;1.02;;;17.80;97.80;;;;;;4953658;29;20034;-76
2022/08/20 05:40:39;;;;;;;3.55;1.10;;;17.80;97.70;;;;;;4953653;28;20051;-75
2022/08/20 05:43:08;;;;;;;2.45;0.88;;;17.80;98.40;;;;;;4953545;29;20035;-75
2022/08/20 05:45:38;;;;;;;2.63;0.88;;;17.90;98.50;;;;;;4953280;29;20114;-76
2022/08/20 05:48:10;;;;;;;;;;;18.00;98.40;;;;;;4939829;29;20031;-75
2022/08/20 05:50:38;;;;;;;2.40;0.80;;;17.90;98.30;;;;;;4956860;29;19906;-75
2022/08/20 05:53:07;;;;;;;2.10;0.80;;;17.80;98.40;;;;;;4957972;28;20038;-75
2022/08/20 05:55:37;;;;;;;3.78;1.13;;;17.80;98.80;;;;;;4956905;29;20035;-75
2022/08/20 05:58:05;;;;;;;;;;;17.80;98.60;;;;;;4957187;29;20046;-75
2022/08/20 06:00:34;;;;;;;2.90;1.00;;;17.70;98.90;;;;;;4956893;29;19997;-75
2022/08/20 06:05:47;;;;;;;5.22;1.15;;;17.70;99.20;;;;;;4958065;29;20114;-77
2022/08/20 06:08:15;;;;;;;4.03;0.95;;;17.70;99.60;;;;;;4958120;28;20051;-76
2022/08/20 06:10:43;;;;;;;4.28;1.65;;;17.60;99.30;;;;;;4958279;28;20023;-75
2022/08/20 06:13:11;;;;;;;3.35;1.08;;;17.50;99.50;;;;;;4959228;28;20114;-76
2022/08/20 06:15:38;;;;;;;4.43;1.45;;;17.40;99.90;;;;;;4958790;28;20135;-76
2022/08/20 06:18:07;;;;;;;2.20;1.00;;;17.40;99.90;;;;;;4956808;29;20031;-75
2022/08/20 06:20:36;;;;;;;5.68;1.40;;;17.30;99.90;;;;;;4957773;28;20099;-76
2022/08/20 06:23:05;;;;;;;3.67;1.20;;;17.30;99.90;;;;;;4956373;29;20030;-75
2022/08/20 06:25:33;;;;;;;3.03;0.88;;;17.20;99.90;;;;;;4956770;29;20522;-75
2022/08/20 06:28:03;;;;;;;6.10;1.30;;;17.10;99.90;;;;;;4956378;29;20467;-75
2022/08/20 06:30:31;;;;;;;3.25;1.42;;;17.10;99.90;;;;;;4957593;28;20030;-75
2022/08/20 06:32:59;;;;;;;3.38;1.20;;;17.10;99.90;;;;;;4956705;29;20086;-77
2022/08/20 06:35:27;;;;;;;3.97;1.38;;;17.00;99.90;;;;;;4957931;28;20094;-76
2022/08/20 06:37:56;;;;;;;4.95;1.40;;;17.00;99.90;;;;;;4957675;28;20027;-76
2022/08/20 06:40:27;;;;;;;3.88;1.60;;;16.90;99.90;;;;;;4957241;28;20043;-75
2022/08/20 06:43:00;;;;;;;3.67;1.48;;;16.90;99.90;;;;;;4956481;29;20032;-75
2022/08/20 06:45:31;;;;;;;5.28;1.40;;;16.90;99.90;;;;;;4955593;29;20035;-76
2022/08/20 06:48:01;;;;;;;5.78;1.55;;;16.90;99.90;;;;;;4955952;29;20035;-75
2022/08/20 06:50:38;;;;;;;4.13;1.30;;;16.90;99.90;;;;;;4957202;28;20369;-75
2022/08/20 06:53:11;;;;;;;4.25;1.40;;;16.80;99.90;;;;;;4940370;29;20067;-73
2022/08/20 06:55:41;;;;;;;3.65;1.27;;;16.80;99.90;;;;;;4956860;28;20084;-74
2022/08/20 06:58:11;;;;;;;3.53;0.90;;;16.70;99.90;;;;;;4956713;28;20023;-75
2022/08/20 07:00:42;;;;;;;2.58;1.30;;;16.60;99.90;;;;;;4938823;29;20032;-76
2022/08/20 07:03:09;;;;;;;;;;;16.50;99.90;;;;;;4956065;29;20034;-75
2022/08/20 07:05:43;;;;;;;4.13;1.38;;;16.40;99.90;;;;;;4958459;28;19977;-78
2022/08/20 07:08:17;;;;;;;3.80;1.13;;;16.40;99.90;;;;;;4958529;29;20392;-78
2022/08/20 07:10:44;;;;;;;4.53;1.50;;;16.40;99.90;;;;;;4956603;29;20061;-77
2022/08/20 07:13:14;;;;;;;3.70;1.20;;;16.30;99.90;;;;;;4957490;29;20038;-77
2022/08/20 07:15:44;;;;;;;3.22;1.20;;;16.20;99.90;;;;;;4958516;29;20162;-78
2022/08/20 07:18:13;;;;;;;3.28;1.10;;;16.20;99.90;;;;;;4959943;28;20023;-78
2022/08/20 07:20:41;;;;;;;3.03;1.33;;;16.20;99.90;;;;;;4957953;29;20034;-77
2022/08/20 07:23:10;;;;;;;3.50;0.90;;;16.10;99.90;;;;;;4957287;29;20161;-79
2022/08/20 07:25:43;;;;;;;2.42;1.33;;;16.10;99.90;;;;;;4956974;29;20027;-76
2022/08/20 07:28:20;;;;;;;2.60;1.15;;;16.00;99.90;;;;;;4956113;29;20059;-77
2022/08/20 07:33:34;;;;;;;2.75;1.55;;;16.00;99.90;;;;;;4957854;29;20030;-77
2022/08/20 07:36:03;;;;;;;3.05;1.40;;;15.90;99.90;;;;;;4956342;29;20129;-77
2022/08/20 07:38:32;;;;;;;3.40;1.38;;;15.90;99.90;;;;;;4955113;29;20027;-76
2022/08/20 07:41:12;;;;;;;3.53;1.17;;;15.80;99.90;;;;;;4956098;28;20055;-72
2022/08/20 07:43:40;;;;;;;2.97;1.08;;;15.90;99.90;;;;;;4954967;29;20027;-75
2022/08/20 07:46:08;;;;;;;3.53;1.33;;;15.90;99.90;;;;;;4955243;29;20510;-76
2022/08/20 07:48:40;;;;;;;4.03;1.48;;;15.90;99.90;;;;;;4955078;29;20114;-76
2022/08/20 07:51:11;;;;;;;4.47;1.73;;;15.90;99.90;;;;;;4956507;28;20038;-76
2022/08/20 07:53:39;;;;;;;4.65;1.63;;;15.80;99.90;;;;;;4954681;29;20043;-76
2022/08/20 07:56:13;;;;;;;3.80;1.42;;;15.70;99.90;;;;;;4954685;29;20062;-75
2022/08/20 07:58:48;;;;;;;4.20;1.42;;;15.60;99.90;;;;;;4954783;29;20035;-75
2022/08/20 08:01:18;;;;;;;2.50;1.00;;;15.60;99.90;;;;;;4955977;28;20492;-74
2022/08/20 08:03:46;;;;;;;2.22;0.88;;;15.60;99.90;;;;;;4956038;28;20038;-75
2022/08/20 08:06:14;;;;;;;1.92;0.82;;;15.50;99.90;;;;;;4954586;29;20032;-76
2022/08/20 08:08:42;;;;;;;1.42;0.77;;;15.50;99.90;;;;;;4954618;29;20086;-76
2022/08/20 08:11:10;;;;;;;2.42;0.90;;;15.40;99.90;;;;;;4954010;28;20031;-76
2022/08/20 08:13:41;;;;;;;2.60;0.80;;;15.40;99.90;;;;;;4954102;29;20027;-76
2022/08/20 08:16:09;;;;;;;1.50;0.65;;;15.20;99.90;;;;;;4955647;28;20023;-76
2022/08/20 08:18:47;;;;;;;1.92;0.60;;;15.20;99.90;;;;;;4954489;29;20488;-76
2022/08/20 08:21:15;;;;;;;1.30;0.70;;;15.20;99.90;;;;;;4956506;28;20019;-77
2022/08/20 08:23:43;;;;;;;1.42;0.75;;;15.10;99.90;;;;;;4954460;29;20067;-76
2022/08/20 08:26:15;;;;;;;1.83;0.50;;;15.10;99.90;;;;;;4954333;29;20510;-77
2022/08/20 08:28:43;;;;;;;1.30;0.73;;;15.20;99.90;;;;;;4956076;28;20023;-77
2022/08/20 08:31:11;;;;;;;2.50;0.75;;;15.10;99.90;;;;;;4955608;28;20492;-75
2022/08/20 08:33:39;;;;;;;4.40;0.85;;;15.10;99.90;;;;;;4955359;28;20175;-75
2022/08/20 08:36:13;;;;;;;2.05;1.02;;;15.00;99.90;;;;;;4955546;28;20023;-76
2022/08/20 08:38:42;;;;;;;1.90;0.82;;;14.90;99.90;;;;;;4954303;29;20035;-75
2022/08/20 08:41:23;;;;;;;1.48;1.00;;;14.80;99.90;;;;;;4953871;28;20039;-75
2022/08/20 08:43:54;;;;;;;;;;;14.70;99.90;;;;;;4954575;29;20023;-76
2022/08/20 08:46:26;;;;;;;2.30;1.05;;;14.70;99.90;;;;;;4955644;28;19906;-76
2022/08/20 08:48:57;;;;;;;2.38;1.17;;;14.60;99.90;;;;;;4954268;29;20035;-75
2022/08/20 08:51:34;;;;;;;1.65;1.00;;;14.50;99.90;;;;;;4955609;28;20479;-76
2022/08/20 08:54:02;;;;;;;1.88;1.30;;;14.50;99.90;;;;;;4955338;28;20102;-75
2022/08/20 08:56:31;;;;;;;1.30;0.93;;;14.40;99.90;;;;;;4953901;29;20028;-75
2022/08/20 08:59:07;;;;;;;2.75;0.93;;;14.50;99.90;;;;;;4953647;29;20040;-75
2022/08/20 09:01:45;;;;;;;1.65;0.90;;;14.50;99.90;;;;;;4954941;28;20391;-74
2022/08/20 09:04:17;;;;;;;2.47;1.00;;;14.50;99.90;;;;;;4953951;29;20039;-75
2022/08/20 09:06:46;;;;;;;3.08;1.25;;;14.50;99.90;;;;;;4954930;28;20484;-75
2022/08/20 09:09:41;;;;;;;0.95;0.77;;;14.50;99.90;;;;;;4953950;29;20118;-76
2022/08/20 09:12:17;;;;;;;2.80;1.10;;;14.50;99.90;;;;;;4954400;29;20062;-73
2022/08/20 09:14:47;;;;;;;1.52;0.90;;;14.40;99.90;;;;;;4954970;28;20028;-74
2022/08/20 09:17:16;;;;;;;2.28;1.10;;;14.30;99.90;;;;;;4953857;29;20037;-75
2022/08/20 09:19:43;;;;;;;1.90;1.00;;;14.20;99.90;;;;;;4955120;28;20051;-74
2022/08/20 09:22:16;;;;;;;1.73;1.00;;;14.20;99.90;;;;;;4955011;28;20449;-75
2022/08/20 09:24:44;;;;;;;2.33;1.00;;;14.10;99.90;;;;;;4958180;28;20078;-75
2022/08/20 09:27:12;;;;;;;2.58;1.30;;;14.00;99.90;;;;;;4957298;29;20090;-75
2022/08/20 09:29:40;;;;;;;2.33;1.60;;;14.00;99.90;;;;;;4958701;28;20369;-75
2022/08/20 09:32:18;;;;;;;2.33;1.17;;;13.90;99.90;;;;;;4957102;29;20031;-75
2022/08/20 09:34:50;;;;;;;2.53;1.77;;;13.80;99.90;;;;;;4957405;29;20024;-74
2022/08/20 09:37:18;;;;;;;3.20;2.10;;;13.80;99.90;;;;;;4957377;29;20388;-75
2022/08/20 09:39:46;;;;;;;3.70;2.50;;;13.80;99.90;;;;;;4957063;28;20020;-75
2022/08/20 09:42:17;;;;;;;4.35;2.70;;;13.80;99.90;;;;;;4958466;28;20023;-76
2022/08/20 09:44:45;;;;;;;3.67;2.35;;;13.70;99.90;;;;;;4956966;29;20035;-76
2022/08/20 09:47:13;;;;;;;4.55;2.80;;;13.70;99.90;;;;;;4957121;29;20062;-75
2022/08/20 09:49:40;;;;;;;4.65;2.22;;;13.70;99.90;;;;;;4957460;29;20517;-76
2022/08/20 09:52:15;;;;;;;3.88;2.38;;;13.80;99.90;;;;;;4958812;28;20089;-76
2022/08/20 09:54:43;;;;;;;3.00;2.10;;;13.70;99.90;;;;;;4942099;29;20050;-76
2022/08/20 09:57:11;;;;;;;3.10;1.92;;;13.60;99.90;;;;;;4958398;28;20114;-77
2022/08/20 09:59:38;;;;;;;4.97;2.78;;;13.60;99.90;;;;;;4956889;29;20110;-75
2022/08/20 10:02:06;;;;;;;4.95;2.95;;;13.60;99.90;;;;;;4958603;28;20123;-76
2022/08/20 10:04:33;;;;;;;3.08;2.30;;;13.50;99.90;;;;;;4958169;28;20035;-76
2022/08/20 10:07:00;;;;;;;5.47;2.63;;;13.50;99.90;;;;;;4956959;29;20479;-75
2022/08/20 10:09:28;;;;;;;5.05;3.17;;;13.50;99.90;;;;;;4957911;28;20058;-75
2022/08/20 10:11:55;;;;;;;4.03;3.22;;;13.40;99.90;;;;;;4958066;28;20074;-76
2022/08/20 10:14:23;;;;;;;5.63;3.08;;;13.30;99.90;;;;;;4956519;29;20086;-76
2022/08/20 10:16:59;;;;;;;5.43;3.00;;;13.30;99.90;;;;;;4958170;28;20027;-76
2022/08/20 10:19:28;;;;;;;4.28;2.97;;;13.30;99.90;;;;;;4957967;28;20023;-75
2022/08/20 10:21:57;;;;;;;3.53;2.50;;;13.20;99.90;;;;;;4940603;29;20056;-76
2022/08/20 10:24:24;;;;;;;3.35;2.30;;;13.10;99.90;;;;;;4957864;28;20074;-76
2022/08/20 10:26:58;;;;;;;4.20;2.22;;;13.10;99.90;;;;;;4957737;28;20506;-76
2022/08/20 10:29:27;;;;;;;3.13;2.25;;;13.20;99.90;;;;;;4957903;28;20027;-75
2022/08/20 10:31:58;;;;;;;2.88;2.25;;;13.20;99.90;;;;;;4957430;28;20035;-76
2022/08/20 10:34:25;;;;;;;5.38;2.50;;;13.10;99.90;;;;;;4957173;28;20090;-74
2022/08/20 10:36:53;;;;;;;3.15;2.35;;;13.00;99.90;;;;;;4955944;29;20031;-74
2022/08/20 10:39:20;;;;;;;3.13;2.10;;;13.10;99.90;;;;;;4957186;28;20504;-75
2022/08/20 10:41:47;;;;;;;2.47;1.80;;;13.10;99.90;;;;;;4957364;28;20407;-75
2022/08/20 10:44:16;;;;;;;2.95;1.75;;;13.20;99.90;;;;;;4955992;29;20030;-75
2022/08/20 10:46:44;;;;;;;3.95;2.78;;;13.20;99.90;;;;;;4956170;29;20488;-77
2022/08/20 10:49:12;;;;;;;4.00;2.70;;;13.20;99.90;;;;;;4955932;29;20495;-75
2022/08/20 10:51:40;;;;;;;3.75;2.90;;;13.20;99.90;;;;;;4957194;28;20027;-75
2022/08/20 10:54:07;;;;;;;3.15;2.35;;;13.20;99.90;;;;;;4957244;28;20023;-75
2022/08/20 10:56:34;;;;;;;2.40;1.08;;;13.10;99.90;;;;;;4957249;28;20488;-75
2022/08/20 10:59:02;;;;;;;1.00;0.70;;;13.10;99.90;;;;;;4957168;28;20098;-76
2022/08/20 11:01:29;;;;;;;2.35;1.10;;;13.20;99.90;;;;;;4957359;28;20475;-76
2022/08/20 11:03:56;;;;;;;2.72;1.10;;;13.20;99.90;;;;;;4957209;28;20019;-76
2022/08/20 11:06:24;;;;;;;4.55;1.40;;;13.10;99.90;;;;;;4957216;28;20031;-76
2022/08/20 11:08:51;;;;;;;3.05;1.88;;;13.10;99.90;;;;;;4955628;29;20031;-75
2022/08/20 11:11:18;;;;;;;2.47;1.73;;;13.10;99.90;;;;;;4955797;29;20031;-76
2022/08/20 11:13:46;;;;;;;2.38;1.73;;;13.00;99.90;;;;;;4955559;29;20024;-76
2022/08/20 11:16:13;;;;;;;2.03;1.27;;;13.00;99.90;;;;;;4956927;28;20023;-76
2022/08/20 11:18:41;;;;;;;1.67;1.10;;;13.00;99.90;;;;;;4957330;28;20020;-75
2022/08/20 11:21:08;;;;;;;1.80;1.10;;;13.00;99.90;;;;;;4956521;28;20031;-75
2022/08/20 11:23:35;;;;;;;2.10;1.23;;;13.10;99.90;;;;;;4956464;28;20023;-76
2022/08/20 11:26:03;;;;;;;1.98;1.30;;;13.10;99.90;;;;;;4956827;28;20078;-76
2022/08/20 11:28:32;;;;;;;2.67;1.50;;;13.20;99.90;;;;;;4956787;28;20027;-75
2022/08/20 11:31:01;;;;;;;3.85;1.90;;;13.20;99.90;;;;;;4955338;29;20043;-75
2022/08/20 11:33:28;;;;;;;2.45;1.30;;;13.30;99.90;;;;;;4955148;29;20023;-75
2022/08/20 11:35:55;;;;;;;1.95;1.17;;;13.30;99.90;;;;;;4955484;29;20110;-75
2022/08/20 11:38:23;;;;;;;6.05;0.90;;;13.30;99.90;;;;;;4955124;29;20023;-76
2022/08/20 11:40:50;;;;;;;3.22;1.00;;;13.30;99.90;;;;;;4956150;28;20042;-76
2022/08/20 11:43:18;;;;;;;3.17;0.80;;;13.40;99.90;;;;;;4939438;29;20027;-76
2022/08/20 11:45:51;;;;;;;14.00;1.95;;;13.30;99.90;;;;;;4955638;28;20384;-76
2022/08/20 11:48:19;;;;;;;4.43;0.90;;;13.20;99.90;;;;;;4956179;28;20032;-76
2022/08/20 11:50:48;;;;;;;2.70;0.90;;;13.20;99.90;;;;;;4956108;28;20033;-76
2022/08/20 11:53:15;;;;;;;4.68;0.85;;;13.10;99.90;;;;;;4954664;29;20051;-75
2022/08/20 11:55:43;;;;;;;3.30;0.68;;;13.10;99.90;;;;;;4954871;29;20031;-75
2022/08/20 11:58:11;;;;;;;2.75;0.82;;;13.00;99.90;;;;;;4955901;28;20076;-75
2022/08/20 12:00:38;;;;;;;4.47;1.20;;;13.00;99.90;;;;;;4956042;28;20058;-75
2022/08/20 12:03:09;;;;;;;5.72;0.82;;;13.00;99.90;;;;;;4956128;28;20031;-75
2022/08/20 12:05:38;;;;;;;5.90;0.68;;;13.10;99.90;;;;;;4954944;29;20086;-73
2022/08/20 12:08:07;;;;;;;4.57;1.10;;;13.10;99.90;;;;;;4955830;29;20035;-73
2022/08/20 12:10:34;;;;;;;5.18;0.73;;;13.10;99.90;;;;;;4954867;29;20058;-74
2022/08/20 12:13:02;;;;;;;3.28;1.20;;;13.10;99.90;;;;;;4956269;28;20099;-75
2022/08/20 12:15:30;;;;;;;2.67;0.60;;;13.00;99.90;;;;;;4955177;29;20432;-75
2022/08/20 12:17:57;;;;;;;2.25;0.47;;;13.00;99.90;;;;;;4955556;29;20027;-74
2022/08/20 12:20:25;;;;;;;3.30;0.80;;;13.00;99.90;;;;;;4956081;28;20055;-74
2022/08/20 12:22:52;;;;;;;4.28;1.27;;;13.00;99.90;;;;;;4955997;28;20042;-74
2022/08/20 12:25:20;;;;;;;2.88;0.70;;;12.90;99.90;;;;;;4956055;28;20027;-74
2022/08/20 12:27:48;;;;;;;1.45;0.50;;;12.90;99.90;;;;;;4954555;29;20488;-75
2022/08/20 12:30:19;;;;;;;2.17;0.60;;;12.90;99.90;;;;;;4954674;29;20035;-74
2022/08/20 12:32:47;;;;;;;1.98;0.50;;;12.80;99.90;;;;;;4956209;28;20484;-73
2022/08/20 12:35:16;;;;;;;3.90;0.65;;;12.80;99.90;;;;;;4954696;29;20405;-74
2022/08/20 12:37:46;;;;;;;3.67;0.70;;;12.70;99.90;;;;;;4955895;28;20030;-75
2022/08/20 12:40:23;;;;;;;2.45;0.88;;;12.70;99.90;;;;;;4938615;29;20411;-74
2022/08/20 12:42:50;;;;;;;3.30;0.60;;;12.70;99.90;;;;;;4956605;28;20027;-74
2022/08/20 12:45:18;;;;;;;3.78;0.50;;;12.60;99.90;;;;;;4954862;29;20031;-74
2022/08/20 12:47:48;;;;;;;2.65;0.65;;;12.60;99.90;;;;;;4956218;28;20030;-74
2022/08/20 12:50:19;;;;;;;4.57;0.83;;;12.60;99.90;;;;;;4955921;28;20023;-74
2022/08/20 12:52:48;;;;;;;2.50;0.80;;;12.50;99.90;;;;;;4954839;29;20381;-74
2022/08/20 12:55:18;;;;;;;1.55;0.50;;;12.60;99.90;;;;;;4954872;29;20119;-73
2022/08/20 12:57:55;;;;;;;2.42;0.50;;;12.50;99.90;;;;;;4956539;28;20027;-72
2022/08/20 13:00:43;;;;;;;2.95;0.55;;;12.50;99.90;;;;;;4959222;29;20030;-75
2022/08/20 13:03:12;;;;;;;3.50;0.52;;;12.50;99.90;;;;;;4958977;29;20035;-75
2022/08/20 13:05:41;;;;;;;2.97;0.88;;;12.50;99.90;;;;;;4960216;28;20058;-76
2022/08/20 13:08:13;;;;;;;4.03;1.33;;;12.50;99.90;;;;;;4960309;28;20407;-75
2022/08/20 13:10:44;;;;;;;6.95;1.05;;;12.50;99.90;;;;;;4958765;29;20023;-75
2022/08/20 13:13:13;;;;;;;2.50;0.75;;;12.60;99.90;;;;;;4960325;28;20027;-76
2022/08/20 13:15:41;;;;;;;3.08;0.93;;;12.60;99.90;;;;;;4960190;28;20107;-76